• Join FlightAware (Why Join?)
  • Login
  • US Flag 
08:14PM EDT


 

Airport Tracker/Info


-or-


 

Live Flight TrackerFlight Track Log ✈ N436RK ✈ 16-Jun-2013 ✈ KBRO - MMAN / NTR

Flight Track Log - Related Links

Times and Time Zones

All times are in EDT time to prevent confusion due to time zone crossing. See the N436RK flight status page for this flight to view local times or setup timezone preferences in your user account.

Time Position Orientation Groundspeed Altitude Reporting Facility
EDT Latitude Longitude Course Direction KTS MPH feet Rate Location/Type
01:04PM 25.8694 -97.4497 230° Southwest 204 235 4,200  Level Houston Center
01:06PM 25.8850 -97.5372 281° West 238 274 6,900 2,280 Climbing Houston Center
01:07PM 25.9014 -97.6289 281° West 298 343 9,500 2,340 Climbing Houston Center
01:08PM 25.9194 -97.7306 281° West 309 356 11,800 2,040 Climbing Houston Center
01:09PM 25.9369 -97.8297 281° West 324 373 13,800 1,920 Climbing Houston Center
01:10PM 25.9567 -97.9381 281° West 330 380 15,800 1,680 Climbing Houston Center
01:11PM 25.9519 -98.0417 267° West 339 390 17,300 1,260 Climbing Houston Center
01:12PM 25.9444 -98.1472 266° West 342 394 18,500 1,200 Climbing Houston Center
01:13PM 25.9339 -98.2653 264° West 355 409 19,900 1,200 Climbing Houston Center
01:14PM 25.9250 -98.3775 265° West 361 415 21,100 960 Climbing Houston Center
01:15PM 25.9147 -98.4992 265° West 367 422 22,000 420 Climbing Houston Center
01:16PM 25.9031 -98.6197 264° West 389 448 22,000  Level Houston Center
01:17PM 25.8928 -98.7461 265° West 407 468 22,000  Level Houston Center
01:18PM 25.8836 -98.8772 266° West 414 476 22,000  Level Houston Center
01:19PM 25.8714 -99.0100 264° West 420 483 22,000  Level Houston Center
01:20PM 25.8597 -99.1433 264° West 425 489 22,000 -660 Level Houston Center
01:21PM 25.8489 -99.2750 265° West 427 491 20,700 -2,160 Descending Houston Center
01:22PM 25.8383 -99.4075 265° West 429 494 17,600 -3,360 Descending Houston Center
01:23PM 25.8578 -99.5531 278° West 411 473 13,800 -3,780 Descending Houston Center
01:24PM 25.8814 -99.6656 283° West 393 452 9,900 -2,400 Descending Houston Center
01:25PM 25.9047 -99.7597 285° West 366 421 8,900 -1,440 Descending Houston Center
01:26PM 25.9242 -99.8378 285° West 325 374 7,000 -1,020 Descending Houston Center
01:27PM 25.9422 -99.9022 287° West 281 323 6,900 -60 Descending Houston Center
01:28PM 25.9592 -99.9539 290° West 237 273 6,900 -240 Level Houston Center
01:30PM 25.9717 -100.0108 284° West 197 227 6,400 -720 Descending Houston Center
01:31PM 25.9839 -100.0739 282° West 200 230 5,500 -900 Descending Houston Center